Power by www.initrio-led.comwww.initrio-led.comwww.initrio-led.comwww.initrio-led.comwww.initrio-led.com

HONDA HRV CLUB - ศูนย์กลางสถิติ

สถิติทั่วไป

จำนวนสมาชิกทั้งหมด:
302
จำนวนตอบกระทู้ทั้งหมด:
89689
จำนวนหัวข้อทั้งหมด:
74091
จำนวนหมวดหมู่ทั้งหมด:
14
ผู้ใช้งานที่ออนไลน์:
137
ออนไลน์มากที่สุด:
263 - 1 พ.ย. 2017, 08:38:26 น.
ออนไลน์วันนี้:
146
เพจวิวทั้งหมด:
2292173
สมาชิกเฉลี่ยต่อวัน:
0.86
ตอบกระทู้เฉลี่ยต่อวัน:
91.90
หัวข้อเฉลี่ยต่อวัน:
75.01
จำนวนบอร์ดทั้งหมด:
30
สมาชิกล่าสุด:
toompost
ออนไลน์เฉลี่ยต่อวัน:
35.39
อัตราส่วนระหว่างชายกับหญิง:
2.6:1
เฉลี่ยเพจวิวต่อวัน:
2320.01

หัวข้อยอดนิยม 10 หัวข้อแรก (ผู้ตอบสูงสุด)

[[ ขาย ]] จำหน่ายถาดท้ายรถยนต์ HONDA HRV และผ้ายางเข้ารูป ราคาโรงงาน !!!!!!
1591
[รับซื้อรถมือสอง]ราคาสูงที่สุด ทุกรุ่นทุกยี่ห้อ คุยง่ายพร้อมบริการถึงที่ครับ
944
!!!! แรงสุดทั่วราชอาณาจักร ดูแคมเปญสุดเล้าใจพร้อมดาวน์โหลดโปรชัวร์ได้ที่นี้ !!!!
527
!!! รับซื้อ รถ สด แรง เร็ว IN AND OUT car ซื้อทุกรุ่น ทุกยี่ห้อ พร้อมโปรโมชั่นรถ
510
"พรมกระดุม พรมดักฝุ่น สูตรดั้งเดิม ทนมากกกก Mr.CARPET"
432
***Saw Palmetto สำหรับชาว HR-V ที่มีปัญหาผมร่วงผมบาง ไม่ส่งผลต่อสมรรถภาพทางเพศ**
387
พรมปูพื้นรถยนต์เข้ารูป ผ้ายางปูพื้นรถ ถาดท้าย พรม5D คิ้วกันสาดเข้ารูปเพียง600-!!
358
ขายผ้าคลุมรถHRV กันน้ำ กันแดดคุณภาพเยี่ยม [รับสั่งตัดงานพิเศษ ทุกแบบ] พร้อมส่ง
356
ล้อป้ายแดง Hrv 17 พร้อมยาง
329
สีแต้มรถ HONDA HRV ขวดละ 170.- (imixpaint) และอุปกรณ์งานแต้มสีรถ
295

หัวข้อยอดนิยม 10 หัวข้อแรก (ผู้อ่านสูงสุด)

[[ ขาย ]] จำหน่ายถาดท้ายรถยนต์ HONDA HRV และผ้ายางเข้ารูป ราคาโรงงาน !!!!!!
25963
ของแต่ง HR-V มาแว้ว คลิกเลย!!!!!!!!!!!!!! ราคากันเอง ฟรีติดตั้ัง
11736
พรมปูพื้นรถยนต์เข้ารูป ผ้ายางปูพื้นรถ ถาดท้าย พรม5D คิ้วกันสาดเข้ารูปเพียง600-!!
10656
ล้อ ยาง max ใหม่หรือป้ายแดง HONDA HRV หลายชุด ขายถูก ติดตั้งหรือส่งทั่วไทยคร้าบ
8354
"พรมกระดุม พรมดักฝุ่น สูตรดั้งเดิม ทนมากกกก Mr.CARPET"
7111
[รับซื้อรถมือสอง]ราคาสูงที่สุด ทุกรุ่นทุกยี่ห้อ คุยง่ายพร้อมบริการถึงที่ครับ
6375
!!!! แรงสุดทั่วราชอาณาจักร ดูแคมเปญสุดเล้าใจพร้อมดาวน์โหลดโปรชัวร์ได้ที่นี้ !!!!
6068
ล้างเเอร์รถยนต์ 500 บาท ซอยหลวงพ่อโต บางพลี พร้อมบริการ ซ่อมเเอร์ ขัดไฟหน้า เเบต
5520
!!! รับซื้อ รถ สด แรง เร็ว IN AND OUT car ซื้อทุกรุ่น ทุกยี่ห้อ พร้อมโปรโมชั่นรถ
5224
ขายผ้าคลุมรถHRV กันน้ำ กันแดดคุณภาพเยี่ยม [รับสั่งตัดงานพิเศษ ทุกแบบ] พร้อมส่ง
5083

เริ่มหัวข้อใหม่มากที่สุด

ออนไลน์นานที่สุด

้hairman
1วัน 5ชั่วโมง 36นาที
montien
1วัน 13นาที
aircardok
23ชั่วโมง 1นาที
MEE-GUSTO
20ชั่วโมง 33นาที
salestray
18ชั่วโมง 26นาที
mr_carpet
17ชั่วโมง 56นาที
Teetawat
16ชั่วโมง 45นาที
ostylegolfzz
14ชั่วโมง 4นาที
pengeng
14ชั่วโมง 1นาที
lekcar88
13ชั่วโมง 49นาที

รายละเอียดระบบย้อนหลัง

สรุปประจำเดือน หัวข้อใหม่ ตอบกระทู้ใหม่ สมาชิกใหม่ ออนไลน์มากที่สุด เพจวิว
* 2017 73819 84655 179 263 2069538
ธันวาคม 2017 11864 13046 12 195 308250
พฤศจิกายน 2017 20293 22242 20 263 530288
ตุลาคม 2017 17994 19931 16 195 473501
กันยายน 2017 16631 18357 22 160 414879
สิงหาคม 2017 6944 7765 34 86 177610
กรกฎาคม 2017 20 472 20 24 11154
มิถุนายน 2017 13 489 10 21 19526
พฤษภาคม 2017 6 227 0 19 8523
เมษายน 2017 11 223 5 109 13439
2017-04-01 0 12 1 34 2116
2017-04-02 3 24 1 52 530
2017-04-03 0 20 0 41 505
2017-04-04 0 23 0 109 2241
2017-04-05 3 15 1 96 1097
2017-04-06 0 34 0 74 862
2017-04-07 2 22 2 69 1119
2017-04-08 2 14 0 62 944
2017-04-09 0 21 0 64 1792
2017-04-10 1 20 0 68 825
2017-04-11 0 18 0 60 538
2017-04-12 0 0 0 38 504
2017-04-13 0 0 0 39 312
2017-04-14 0 0 0 2 36
2017-04-15 0 0 0 0 15
2017-04-16 0 0 0 1 1
2017-04-17 0 0 0 1 1
2017-04-18 0 0 0 1 1
มีนาคม 2017 15 719 10 74 42902
กุมภาพันธ์ 2017 12 574 18 95 27236
2017-02-01 0 20 0 18 569
2017-02-02 0 22 0 18 267
2017-02-03 0 17 0 15 690
2017-02-04 0 25 0 70 849
2017-02-05 0 27 1 63 756
2017-02-06 1 19 0 57 1654
2017-02-07 0 14 0 63 1774
2017-02-08 0 16 0 66 915
2017-02-09 3 24 2 66 1349
2017-02-10 1 17 0 51 794
2017-02-11 0 29 0 95 1961
2017-02-12 0 11 0 76 716
2017-02-13 0 16 0 55 1497
2017-02-14 0 20 0 78 829
2017-02-15 1 20 0 65 758
2017-02-16 1 23 1 56 1833
2017-02-17 0 18 0 28 282
2017-02-18 0 29 0 4 269
2017-02-19 0 26 0 10 251
2017-02-20 1 21 0 13 273
2017-02-21 0 20 0 10 315
2017-02-22 1 22 2 61 500
2017-02-23 0 13 1 41 650
2017-02-24 0 20 2 57 868
2017-02-25 1 14 1 65 839
2017-02-26 0 29 2 72 2382
2017-02-27 1 17 4 77 1974
2017-02-28 1 25 2 68 1422
มกราคม 2017 16 610 12 92 42230
* 2016 254 5653 534 175 198775
ธันวาคม 2016 7 629 6 56 19786
พฤศจิกายน 2016 13 568 10 52 24760
ตุลาคม 2016 13 601 11 69 20621
กันยายน 2016 9 690 14 54 20567
2016-09-01 1 29 1 53 824
2016-09-02 0 23 0 39 595
2016-09-03 0 24 0 35 1595
2016-09-04 0 28 1 35 541
2016-09-05 0 29 1 49 572
2016-09-06 0 27 1 45 762
2016-09-07 0 25 0 17 417
2016-09-08 0 26 0 17 531
2016-09-09 0 23 0 28 652
2016-09-10 4 28 2 54 891
2016-09-11 0 18 0 39 827
2016-09-12 0 25 0 45 697
2016-09-13 0 25 0 41 1532
2016-09-14 0 35 0 39 717
2016-09-15 0 25 0 40 548
2016-09-16 1 28 1 42 697
2016-09-17 0 16 0 51 628
2016-09-18 0 15 0 30 492
2016-09-19 0 22 0 25 457
2016-09-20 0 23 0 24 418
2016-09-21 0 21 0 25 388
2016-09-22 0 20 0 26 399
2016-09-23 1 21 2 27 1382
2016-09-24 0 16 1 53 719
2016-09-25 0 20 1 51 596
2016-09-26 1 20 0 43 714
2016-09-27 0 20 0 46 473
2016-09-28 1 21 3 34 647
2016-09-29 0 19 0 39 419
2016-09-30 0 18 0 38 437
สิงหาคม 2016 48 673 21 50 21743
กรกฎาคม 2016 72 591 225 175 38662
มิถุนายน 2016 7 441 43 32 13927
2016-06-01 0 15 3 18 405
2016-06-02 0 12 3 15 200
2016-06-03 0 10 1 17 1215
2016-06-04 0 12 1 17 277
2016-06-05 0 13 0 13 294
2016-06-06 0 20 0 22 286
2016-06-07 0 12 0 15 254
2016-06-08 0 16 1 22 285
2016-06-09 0 13 0 19 293
2016-06-10 0 15 1 20 468
2016-06-11 0 12 2 19 219
2016-06-12 0 9 1 17 250
2016-06-13 0 11 1 20 1295
2016-06-14 0 19 1 21 252
2016-06-15 1 18 1 24 305
2016-06-16 0 13 1 24 430
2016-06-17 0 15 6 32 452
2016-06-18 0 10 0 23 679
2016-06-19 0 12 2 21 645
2016-06-20 0 14 2 15 675
2016-06-21 2 19 2 16 361
2016-06-22 1 18 2 25 372
2016-06-23 2 22 1 20 317
2016-06-24 0 15 4 31 1535
2016-06-25 0 17 0 25 333
2016-06-26 1 15 2 17 249
2016-06-27 0 16 3 21 372
2016-06-28 0 17 0 17 438
2016-06-29 0 15 1 22 328
2016-06-30 0 16 1 22 443
พฤษภาคม 2016 65 449 46 26 11172
เมษายน 2016 5 264 48 19 7599
มีนาคม 2016 1 269 35 27 7042
2016-03-01 0 8 2 13 170
2016-03-02 0 8 3 17 175
2016-03-03 0 9 3 10 147
2016-03-04 0 10 2 12 161
2016-03-05 0 11 0 11 164
2016-03-06 0 8 1 8 132
2016-03-07 0 8 1 14 157
2016-03-08 0 10 2 12 220
2016-03-09 0 7 0 14 223
2016-03-10 0 9 0 11 162
2016-03-11 0 9 0 15 187
2016-03-12 0 9 2 17 260
2016-03-13 0 7 0 9 153
2016-03-14 0 6 1 18 194
2016-03-15 0 11 2 24 571
2016-03-16 0 10 0 27 976
2016-03-17 0 8 2 15 221
2016-03-18 0 10 1 18 244
2016-03-19 0 6 0 13 188
2016-03-20 0 5 0 14 129
2016-03-21 0 8 1 17 178
2016-03-22 0 9 1 14 160
2016-03-23 1 12 1 19 226
2016-03-24 0 10 1 14 231
2016-03-25 0 9 1 12 160
2016-03-26 0 8 0 17 174
2016-03-27 0 7 3 17 195
2016-03-28 0 10 0 14 181
2016-03-29 0 11 2 19 340
2016-03-30 0 8 3 13 177
2016-03-31 0 8 0 13 186
กุมภาพันธ์ 2016 6 268 35 29 7327
มกราคม 2016 8 210 40 18 5569
2016-01-01 0 1 0 6 84
2016-01-02 0 1 0 7 127
2016-01-03 1 8 2 9 147
2016-01-04 0 5 1 15 177
2016-01-05 0 7 0 13 167
2016-01-06 1 7 2 9 155
2016-01-07 0 5 2 11 139
2016-01-08 0 7 4 11 170
2016-01-09 0 6 0 9 139
2016-01-10 0 6 0 12 133
2016-01-11 0 4 0 12 200
2016-01-12 0 7 0 15 229
2016-01-13 0 6 2 17 201
2016-01-14 1 9 2 14 199
2016-01-15 0 6 0 10 119
2016-01-16 0 5 0 13 166
2016-01-17 0 4 2 11 153
2016-01-18 0 7 1 16 135
2016-01-19 0 8 5 14 243
2016-01-20 0 6 2 11 137
2016-01-21 1 7 2 16 203
2016-01-22 0 8 0 13 138
2016-01-23 0 6 3 13 188
2016-01-24 1 9 1 14 257
2016-01-25 2 10 3 17 246
2016-01-26 0 12 1 13 215
2016-01-27 1 9 3 17 253
2016-01-28 0 9 1 12 177
2016-01-29 0 10 0 18 244
2016-01-30 0 8 0 13 192
2016-01-31 0 7 1 13 236
* 2015 35 492 137 43 23860
ธันวาคม 2015 3 149 26 19 5083
2015-12-01 0 6 1 13 130
2015-12-02 0 5 0 10 102
2015-12-03 0 4 1 12 106
2015-12-04 0 4 1 10 116
2015-12-05 0 3 0 11 105
2015-12-06 0 3 0 8 91
2015-12-07 0 5 2 15 125
2015-12-08 0 6 0 9 137
2015-12-09 0 5 2 11 122
2015-12-10 0 5 0 15 144
2015-12-11 0 4 1 10 127
2015-12-12 0 4 1 13 138
2015-12-13 0 4 1 19 206
2015-12-14 0 4 1 9 149
2015-12-15 0 4 2 19 185
2015-12-16 0 5 0 12 171
2015-12-17 0 4 2 14 182
2015-12-18 1 4 2 10 164
2015-12-19 0 3 1 9 162
2015-12-20 0 4 0 14 180
2015-12-21 1 12 2 13 266
2015-12-22 0 7 1 15 226
2015-12-23 0 7 0 17 236
2015-12-24 0 4 0 14 219
2015-12-25 0 7 0 17 281
2015-12-26 0 5 0 13 202
2015-12-27 0 4 0 11 140
2015-12-28 1 8 3 14 206
2015-12-29 0 5 1 12 209
2015-12-30 0 3 0 12 137
2015-12-31 0 1 1 10 119
พฤศจิกายน 2015 3 107 12 43 3970
2015-11-01 0 2 0 10 86
2015-11-02 1 2 1 11 166
2015-11-03 0 3 1 8 133
2015-11-04 0 4 1 13 141
2015-11-05 0 4 1 13 138
2015-11-06 0 3 1 10 104
2015-11-07 0 2 0 9 61
2015-11-08 0 5 0 8 136
2015-11-09 0 4 0 10 92
2015-11-10 0 2 0 9 62
2015-11-11 0 2 0 9 95
2015-11-12 0 2 0 10 103
2015-11-13 0 4 0 12 137
2015-11-14 0 3 0 11 127
2015-11-15 0 3 0 10 97
2015-11-16 0 4 0 10 115
2015-11-17 0 5 0 15 186
2015-11-18 0 5 1 14 130
2015-11-19 0 4 1 8 82
2015-11-20 0 3 0 43 686
2015-11-21 1 3 1 13 151
2015-11-22 0 4 0 11 100
2015-11-23 0 5 0 13 141
2015-11-24 0 4 1 10 150
2015-11-25 0 4 1 14 96
2015-11-26 1 5 0 8 81
2015-11-27 0 5 0 12 115
2015-11-28 0 4 1 10 86
2015-11-29 0 4 1 11 74
2015-11-30 0 3 0 12 99
ตุลาคม 2015 3 34 13 12 2397
กันยายน 2015 2 33 18 12 1923
สิงหาคม 2015 1 35 13 10 1436
กรกฎาคม 2015 1 33 7 9 1695
มิถุนายน 2015 2 38 12 10 1943
2015-06-01 0 2 1 6 92
2015-06-02 1 3 2 6 85
2015-06-03 0 1 1 6 69
2015-06-04 0 1 0 5 34
2015-06-05 0 2 0 7 73
2015-06-06 0 1 0 7 57
2015-06-07 0 1 1 9 108
2015-06-08 0 2 0 8 111
2015-06-09 0 1 0 10 74
2015-06-10 0 1 0 9 67
2015-06-11 0 1 1 8 96
2015-06-12 0 1 0 6 58
2015-06-13 0 0 0 4 37
2015-06-14 0 1 0 6 52
2015-06-15 0 1 0 6 62
2015-06-16 0 1 1 7 60
2015-06-17 0 1 0 7 45
2015-06-18 0 1 0 5 65
2015-06-19 0 1 0 7 49
2015-06-20 0 1 1 8 75
2015-06-21 1 2 0 5 55
2015-06-22 0 1 0 6 38
2015-06-23 0 3 0 7 76
2015-06-24 0 1 0 4 35
2015-06-25 0 1 0 8 50
2015-06-26 0 1 0 7 47
2015-06-27 0 1 0 7 54
2015-06-28 0 1 0 8 91
2015-06-29 0 2 2 7 88
2015-06-30 0 1 2 5 40
พฤษภาคม 2015 1 30 21 10 1886
เมษายน 2015 19 33 15 12 3527

TOP